AirNav   Pilot Hours Calculator
 
 267 users online  

1CA6 On the Rocks Airport
Alpine, California, USA

GOING TO ALPINE?


FAA INFORMATION EFFECTIVE 10 OCTOBER 2019

Location

FAA Identifier: 1CA6
Lat/Long: 32-45-54.1950N 116-43-21.0740W
32-45.903250N 116-43.351233W
32.7650542,-116.7225206
(estimated)
Elevation: 2650 ft. / 808 m (estimated)
Variation: 13E (1985)
From city: 5 miles SE of ALPINE, CA
Time zone: UTC -7 (UTC -8 during Standard Time)
Zip code: 91901

Airport Operations

Airport use: Private use. Permission required prior to landing
Activation date: 04/1990
Control tower: no
ARTCC: LOS ANGELES CENTER
FSS: SAN DIEGO FLIGHT SERVICE STATION
Attendance: UNATNDD
Wind indicator: yes
Segmented circle: no

Airport Communications

WX AWOS-3P at SEE (13 nm W): 125.45 (619-449-1228)
WX ASOS at SDM (17 nm SW): 132.35 (619-661-8297)
WX ASOS at RNM (19 nm NW): PHONE 760-789-7699

Nearby radio navigation aids

VOR radial/distance  VOR name  Freq  Var
PGYr040/15.9POGGI VORTAC116.4514E
TIJr027/17.8TIJUANA VOR/DME116.5014E
JLIr182/23.6JULIAN VORTAC114.0015E
MZBr077/25.4MISSION BAY VORTAC117.8015E

Airport Services

Runway Information

Runway 15/33

Dimensions: 2340 x 60 ft. / 713 x 18 m
Surface: gravel
Operational restrictions: LAND RY 15 ONLY; TKOF RY 33 ONLY. LEFT TURN ON DEPARTURE TO AVOID HOMES.
RUNWAY 15  RUNWAY 33
Traffic pattern: leftleft

Airport Ownership and Management from official FAA records

Ownership: Privately-owned
Owner: COVERT CANYON LLC
1464 GRAVES AVE STE 104
EL CAJON, CA 92021-8951
Phone 619-992-4570
Manager: MARC HALCON
1464 GRAVES AVE STE 104
EL CAJON, CA 92021-8951
Phone 619-992-4570

Airport Operational Statistics

Aircraft based on the field: 1
Single engine airplanes: 1
    

Additional Remarks

FOR CD CTC LOS ANGELES ARTCC AT 661-575-2079.

Instrument Procedures

There are no published instrument procedures at 1CA6.

Some nearby airports with instrument procedures:

KSEE - Gillespie Field Airport (13 nm W)
KSDM - Brown Field Municipal Airport (17 nm SW)
KRNM - Ramona Airport (19 nm NW)
KMYF - Montgomery-Gibbs Executive Airport (21 nm W)
KNKX - Miramar MCAS (Joe Foss Field) Airport (22 nm W)
 
Loc | Ops | Rwys | IFR | FBO | Links
Com | Nav | Svcs | Stats | Notes
Area around 1CA6 (On the Rocks Airport)
 
Road maps at: MapQuest Bing Google
 
Aerial photo
No photo
 
Sectional chart

 
Airport distance calculator
Flying to On the Rocks Airport? Find the distance to fly.

From to 1CA6

Sunrise and sunset
Times for 17-Oct-2019
 Local
(UTC-7)
 Zulu
(UTC)
Morning civil twilight06:2913:29
Sunrise06:5413:54
Sunset18:1101:11
Evening civil twilight18:3601:36

Current date and time
Zulu (UTC)  17-Oct-2019 09:18:09
Local (UTC-7)  17-Oct-2019 02:18:09
 
METAR
KSEE 
13nm W 
170855Z AUTO 29004KT 10SM CLR 16/11 A2983 RMK AO2
KCZZ 
15nm SE 
170852Z AUTO 06007KT 09/00 A2986 RMK AO1 SLP083 T00890000 56011
KSDM 
18nm SW 
170853Z AUTO 00000KT 1/4SM FG VV002 17/17 A2983 RMK AO2 SLP095 T01720167 58004
MMTJ 
19nm SW 
170857Z 00000KT 1SM BR OVC001 17/17 A2985 RMK 8/6//
KRNM 
19nm NW 
170853Z AUTO 00000KT 10SM CLR 10/02 A2984 RMK AO2 SLP091 T01000022 56008
KMYF 
21nm W 
170853Z AUTO 26004KT 1/4SM FG VV002 18/17 A2984 RMK AO2 SLP099 T01780167 55003
KNKX 
22nm W 
170855Z 00000KT 1/4SM FG VV001 18/16 A2983 RMK AO2 SLP096 T01780161 56000
KNRS 
23nm SW 
170856Z AUTO 9SM OVC008 A2984 RMK AO2 SLP106 51002 $
KSAN 
23nm W 
170851Z 00000KT 6SM BR OVC006 19/18 A2984 RMK AO2 SLP105 CIG 004V007 T01890183 55003 $
KNZY 
25nm W 
170852Z 00000KT 7SM BKN008 19/17 A2982 RMK AO2 SLP098 T01890172 55002
TAF
MMTJ 
19nm SW 
170723Z 1707/1812 28007KT 1/2SM FG OVC001 TX26/1721Z TN14/1712Z FM171000 00000KT 3SM BR BKN006 FM171500 30010KT 6SM HZ SCT015 FM180300 30005KT 5SM HZ SCT010
KNKX 
22nm W 
1703/1803 VRB05KT 9999 SCT200 QNH2980INS TEMPO 1703/1708 1600 BR BKN002 TEMPO 1710/1716 1600 BR BKN006 FM171630 VRB05KT 9999 FEW015 SCT200 QNH2983INS BECMG 1717/1719 26010KT 9999 FEW040 SCT200 QNH2974INS T17/1710Z T24/1721Z AMD 0330
NOTAMs
Click for the latest NOTAMs
NOTAMs are issued by the DoD/FAA and will open in a separate window not controlled by AirNav.

 

 
 

Would you like to see your business listed on this page?

 If your business provides an interesting product or service to pilots, flight crews, aircraft, or users of the On the Rocks Airport, you should consider listing it here.  To start the listing process, click on the button below
 
Add a business
 

Other Pages about On the Rocks Airport

Update a link
 
Copyright © AirNav, LLC. All rights reserved. Privacy Policy  Contact